createdAt,value
2023-06-17T03:02:44.616Z,96176.63
2023-06-17T03:05:11.174Z,96177.06
2023-06-17T03:07:37.738Z,96179.00
2023-06-17T03:10:04.471Z,96172.56
2023-06-17T03:12:31.207Z,96173.69
2023-06-17T03:14:58.394Z,96175.97
2023-06-17T03:17:28.565Z,96179.09
2023-06-17T03:19:55.093Z,96183.28
2023-06-17T03:22:21.793Z,96183.31
2023-06-17T03:24:48.295Z,96186.34
2023-06-17T03:27:14.817Z,96192.09
2023-06-17T03:29:41.331Z,96190.91
2023-06-17T03:32:08.262Z,96186.00
2023-06-17T03:34:34.753Z,96188.34
2023-06-17T03:37:01.230Z,96186.13
2023-06-17T03:39:27.739Z,96178.50
2023-06-17T03:41:54.188Z,96188.41
2023-06-17T03:44:20.775Z,96181.19
2023-06-17T03:46:47.269Z,96188.41
2023-06-17T03:49:13.806Z,96192.22
2023-06-17T03:51:40.652Z,96191.47
2023-06-17T03:54:07.186Z,96162.19
2023-06-17T03:56:33.645Z,96190.78
2023-06-17T03:59:00.194Z,96193.50
2023-06-17T04:01:26.727Z,96188.56
2023-06-17T04:03:53.369Z,96180.25
2023-06-17T04:06:20.023Z,96178.38
2023-06-17T04:08:48.036Z,96176.91
2023-06-17T04:11:15.815Z,96176.94
2023-06-17T04:13:42.420Z,96177.72
2023-06-17T04:16:08.926Z,96178.50
2023-06-17T04:18:35.516Z,96178.50
2023-06-17T04:21:02.948Z,96177.72
2023-06-17T04:23:29.526Z,96171.59
2023-06-17T04:25:57.841Z,96178.84
2023-06-17T04:28:24.741Z,96171.59
2023-06-17T04:30:52.725Z,96175.78
2023-06-17T04:33:19.333Z,96173.13
2023-06-17T04:35:45.896Z,96174.25
2023-06-17T04:38:12.601Z,96180.69
2023-06-17T04:40:39.145Z,96180.34
2023-06-17T04:43:05.817Z,96186.41
2023-06-17T04:45:32.591Z,96190.19
2023-06-17T04:47:59.237Z,96188.28
2023-06-17T04:50:26.003Z,96184.91
2023-06-17T04:52:53.145Z,96179.63
2023-06-17T04:55:22.398Z,96188.56
2023-06-17T04:57:49.073Z,96187.59
2023-06-17T05:00:15.743Z,96187.72
2023-06-17T05:02:42.276Z,96191.56
2023-06-17T05:05:09.266Z,96179.25
2023-06-17T05:07:36.008Z,96186.00
2023-06-17T05:10:02.822Z,96197.69
2023-06-17T05:12:29.367Z,96198.88
2023-06-17T05:14:56.153Z,96198.19
2023-06-17T05:17:22.852Z,96198.09
2023-06-17T05:19:50.817Z,96207.72
2023-06-17T05:22:17.535Z,96207.34
2023-06-17T05:24:45.867Z,96209.53
2023-06-17T05:27:12.744Z,96217.75
2023-06-17T05:29:40.352Z,96219.94
2023-06-17T05:32:07.823Z,96212.84
2023-06-17T05:34:34.795Z,96214.00
2023-06-17T05:37:01.433Z,96218.31
2023-06-17T05:39:28.248Z,96212.53
2023-06-17T05:41:54.887Z,96202.41
2023-06-17T05:44:21.467Z,96217.97
2023-06-17T05:46:48.007Z,96214.53
2023-06-17T05:49:15.925Z,96221.28
2023-06-17T05:51:42.681Z,96221.94
2023-06-17T05:54:09.371Z,96212.22
2023-06-17T05:56:35.913Z,96212.97
2023-06-17T05:59:02.516Z,96221.38
2023-06-17T06:01:29.079Z,96216.66
2023-06-17T06:03:55.762Z,96225.34
2023-06-17T06:06:22.370Z,96211.22
2023-06-17T06:08:51.342Z,96222.38
2023-06-17T06:11:18.081Z,96215.69
2023-06-17T06:13:44.667Z,96225.59
2023-06-17T06:16:11.267Z,96230.00
2023-06-17T06:18:39.767Z,96233.28
2023-06-17T06:21:07.005Z,96222.94
2023-06-17T06:23:36.075Z,96232.81
2023-06-17T06:26:02.610Z,96233.50
2023-06-17T06:28:29.297Z,96232.53
2023-06-17T06:30:56.150Z,96235.81
2023-06-17T06:33:24.101Z,96242.31
2023-06-17T06:35:51.424Z,96243.31
2023-06-17T06:38:18.150Z,96247.66
2023-06-17T06:40:47.516Z,96244.34
2023-06-17T06:43:15.241Z,96243.44
2023-06-17T06:45:44.146Z,96247.03
2023-06-17T06:48:11.490Z,96247.50
2023-06-17T06:50:39.689Z,96243.88
2023-06-17T06:53:25.654Z,96252.47
2023-06-17T06:56:17.383Z,96256.53
2023-06-17T07:09:48.823Z,96261.56
2023-06-17T07:12:15.431Z,96257.19
2023-06-17T07:14:42.062Z,96261.94
2023-06-17T07:17:08.840Z,96254.50
2023-06-17T07:19:35.551Z,96251.25
2023-06-17T07:22:09.252Z,96255.81
2023-06-17T08:10:00.692Z,96240.94
2023-06-17T08:12:27.419Z,96241.75
2023-06-17T08:14:54.335Z,96247.88
2023-06-17T08:17:21.192Z,96230.69
2023-06-17T08:19:47.829Z,96246.56
2023-06-17T08:22:14.659Z,96240.31
2023-06-17T08:24:41.812Z,96244.88
2023-06-17T08:27:11.201Z,96240.19
2023-06-17T08:29:37.889Z,96232.63
2023-06-17T08:32:04.994Z,96229.28
2023-06-17T08:34:37.697Z,96230.66
2023-06-17T08:41:08.820Z,96235.84
2023-06-17T08:51:10.613Z,96220.97
2023-06-17T08:53:37.718Z,96214.53
2023-06-17T09:26:50.098Z,96208.38
2023-06-17T09:29:17.327Z,96205.63
2023-06-17T09:54:39.167Z,96190.09
2023-06-17T09:57:08.906Z,96179.38
2023-06-17T09:59:35.564Z,96199.09
2023-06-17T10:02:02.241Z,96189.47
2023-06-17T10:04:28.789Z,96191.94
2023-06-17T10:06:55.666Z,96197.19
2023-06-17T10:09:22.360Z,96195.09
2023-06-17T10:11:54.112Z,96197.84
2023-06-17T10:14:29.042Z,96210.56
2023-06-17T10:16:56.290Z,96205.94
2023-06-17T10:31:33.563Z,96203.00
2023-06-17T10:37:51.540Z,96194.06
2023-06-17T10:40:29.041Z,96186.09
2023-06-17T10:43:01.747Z,96202.88
2023-06-17T10:45:33.679Z,96174.03
2023-06-17T10:48:19.277Z,96190.53
2023-06-17T10:50:51.043Z,96186.16
2023-06-17T10:53:18.364Z,96193.19
2023-06-17T10:55:46.629Z,96177.16
2023-06-17T10:58:13.710Z,96188.25
2023-06-17T11:00:40.368Z,96186.75
2023-06-17T11:03:09.777Z,96178.78
2023-06-17T11:05:37.185Z,96184.28
2023-06-17T11:08:04.741Z,96176.75
2023-06-17T11:10:31.343Z,96172.97
2023-06-17T11:12:58.420Z,96171.72
2023-06-17T11:15:25.343Z,96164.63
2023-06-17T11:18:02.412Z,96163.25
2023-06-17T11:20:31.489Z,96160.59
2023-06-17T11:22:57.954Z,96161.44
2023-06-17T11:25:35.973Z,96161.63
2023-06-17T11:28:11.502Z,96156.16
2023-06-17T11:30:39.551Z,96152.91
2023-06-17T11:33:08.050Z,96150.56
2023-06-17T11:35:35.881Z,96141.38
2023-06-17T11:38:03.357Z,96141.91
2023-06-17T11:40:29.843Z,96137.72
2023-06-17T11:42:58.552Z,96140.41
2023-06-17T11:45:26.033Z,96129.47
2023-06-17T11:47:52.731Z,96129.75
2023-06-17T11:50:19.889Z,96132.84
2023-06-17T11:52:57.623Z,96127.13
2023-06-17T11:55:33.235Z,96129.81
2023-06-17T11:58:01.899Z,96125.81
2023-06-17T12:00:29.588Z,96126.69
2023-06-17T12:02:59.468Z,96130.44
2023-06-17T12:05:29.903Z,96119.84
2023-06-17T12:08:01.220Z,96134.53
2023-06-17T12:10:28.282Z,96128.06
2023-06-17T12:12:58.396Z,96135.34
2023-06-17T12:15:36.908Z,96128.56
2023-06-17T12:18:15.934Z,96131.75
2023-06-17T12:20:51.336Z,96116.16
2023-06-17T12:23:18.179Z,96123.94
2023-06-17T12:25:47.796Z,96118.31
2023-06-17T12:28:15.261Z,96112.00
2023-06-17T12:30:47.048Z,96115.50
2023-06-17T12:33:14.010Z,96109.00
2023-06-17T12:35:40.551Z,96105.09
2023-06-17T12:38:08.473Z,96097.59
2023-06-17T12:40:35.057Z,96098.00
2023-06-17T12:43:01.608Z,96092.16
2023-06-17T12:45:29.510Z,96096.09
2023-06-17T12:47:57.293Z,96091.09
2023-06-17T12:50:26.427Z,96088.72
2023-06-17T12:52:58.224Z,96087.19
2023-06-17T12:55:24.913Z,96085.66
2023-06-17T12:57:51.628Z,96073.13
2023-06-17T13:00:19.782Z,96081.13
2023-06-17T13:02:46.911Z,96078.91
2023-06-17T13:05:14.194Z,96072.84
2023-06-17T13:07:42.917Z,96071.59
2023-06-17T13:10:10.165Z,96081.06
2023-06-17T13:12:38.007Z,96074.22
2023-06-17T13:15:12.978Z,96069.63
2023-06-17T13:17:39.823Z,96061.78
2023-06-17T13:20:07.260Z,96057.63
2023-06-17T13:22:34.743Z,96064.50
2023-06-17T13:25:01.844Z,96058.44
2023-06-17T13:27:28.946Z,96061.38
2023-06-17T13:29:55.943Z,96052.19
2023-06-17T13:32:22.439Z,96062.25
2023-06-17T13:34:52.336Z,96060.66
2023-06-17T13:37:19.216Z,96059.13
2023-06-17T13:39:47.558Z,96059.72
2023-06-17T13:42:16.525Z,96045.16
2023-06-17T13:44:45.514Z,96050.06
2023-06-17T13:47:12.776Z,96046.53
2023-06-17T13:49:39.412Z,96048.06
2023-06-17T13:52:07.224Z,96048.25
2023-06-17T13:54:33.933Z,96056.22
2023-06-17T13:57:02.691Z,96050.53
2023-06-17T13:59:29.795Z,96042.66
2023-06-17T14:01:56.445Z,96037.72
2023-06-17T14:04:23.243Z,96047.91
2023-06-17T14:06:50.698Z,96046.47
2023-06-17T14:09:17.465Z,96036.56
2023-06-17T14:11:44.012Z,96043.47
2023-06-17T14:14:10.658Z,96031.44
2023-06-17T14:16:37.236Z,96047.09
2023-06-17T14:19:03.875Z,96048.63
2023-06-17T14:21:32.839Z,96043.06
2023-06-17T14:24:02.919Z,96046.09
2023-06-17T14:26:30.220Z,96031.13
2023-06-17T14:28:57.202Z,96039.81
2023-06-17T14:31:23.935Z,96031.84
2023-06-17T14:33:54.711Z,96033.97
2023-06-17T14:36:23.450Z,96021.94
2023-06-17T14:38:50.432Z,96012.56
2023-06-17T14:41:17.276Z,96024.50
2023-06-17T14:43:43.911Z,96021.53
2023-06-17T14:46:10.710Z,96010.94
2023-06-17T14:48:37.789Z,96028.69
2023-06-17T14:51:04.569Z,96027.56
2023-06-17T14:53:37.740Z,96027.00
2023-06-17T14:56:34.724Z,96032.97
2023-06-17T14:59:06.964Z,96030.59
2023-06-17T15:01:36.015Z,96021.28
2023-06-17T15:04:03.982Z,96018.16
2023-06-17T15:06:31.754Z,96019.44
2023-06-17T15:09:25.844Z,96025.03
2023-06-17T15:11:59.457Z,96017.56
2023-06-17T15:14:35.483Z,96021.75
2023-06-17T15:17:02.730Z,96005.00
2023-06-17T15:19:29.282Z,96004.84
2023-06-17T15:21:55.782Z,95998.41
2023-06-17T15:24:22.365Z,96020.06
2023-06-17T15:26:49.021Z,96003.38
2023-06-17T15:29:16.777Z,96009.03
2023-06-17T15:31:43.450Z,96010.94
2023-06-17T15:34:12.845Z,96012.72
2023-06-17T15:36:43.344Z,96011.75
2023-06-17T15:39:21.831Z,95973.75
2023-06-17T15:41:58.328Z,96008.81
2023-06-17T15:44:25.572Z,96001.06
2023-06-17T15:46:52.317Z,95995.91
2023-06-17T15:49:19.041Z,96002.00
2023-06-17T15:51:45.638Z,96008.53
2023-06-17T15:54:12.496Z,95999.91
2023-06-17T15:56:40.837Z,96003.69
2023-06-17T15:59:07.479Z,96004.44
2023-06-17T16:01:34.289Z,96000.50
2023-06-17T16:04:26.670Z,96008.03
2023-06-17T16:06:54.406Z,96002.31
2023-06-17T16:09:21.003Z,96006.53
2023-06-17T16:11:47.584Z,96009.34
2023-06-17T16:14:14.055Z,95975.91
2023-06-17T16:16:40.727Z,96000.34
2023-06-17T16:19:08.725Z,95991.06
2023-06-17T16:21:36.492Z,96008.34
2023-06-17T16:24:03.380Z,96009.56
2023-06-17T16:26:32.054Z,95999.50
2023-06-17T16:28:58.587Z,96002.31
2023-06-17T16:31:25.116Z,95999.28
2023-06-17T16:33:51.737Z,95999.88
2023-06-17T16:36:18.233Z,96001.53
2023-06-17T16:38:44.894Z,95995.09
2023-06-17T16:41:11.585Z,96003.22
2023-06-17T16:43:38.109Z,96003.06
2023-06-17T16:46:05.834Z,95991.63
2023-06-17T16:48:32.410Z,95997.78
2023-06-17T16:50:58.907Z,95992.06
2023-06-17T16:53:25.522Z,95991.78
2023-06-17T16:55:52.040Z,96005.59
2023-06-17T16:58:18.562Z,96003.13
2023-06-17T17:00:45.962Z,95998.75
2023-06-17T17:03:12.799Z,95995.44
2023-06-17T17:05:39.470Z,95986.59
2023-06-17T17:08:06.031Z,96004.91
2023-06-17T17:10:32.618Z,95993.34
2023-06-17T17:12:59.233Z,95995.59
2023-06-17T17:15:25.904Z,96002.97
2023-06-17T17:17:52.496Z,96002.38
2023-06-17T17:20:19.166Z,96006.44
2023-06-17T17:22:46.741Z,96018.28
2023-06-17T17:25:13.597Z,96012.06
2023-06-17T17:27:40.157Z,96002.31
2023-06-17T17:30:07.884Z,96016.72
2023-06-17T17:32:34.877Z,95999.28
2023-06-17T17:35:01.409Z,96010.09
2023-06-17T17:37:29.112Z,95985.75
2023-06-17T17:39:55.819Z,96007.00
2023-06-17T17:42:22.330Z,96005.31
2023-06-17T17:44:48.887Z,96006.50
2023-06-17T17:47:15.688Z,96017.31
2023-06-17T17:49:42.270Z,96015.78
2023-06-17T17:52:08.783Z,96008.56
2023-06-17T17:54:36.540Z,96013.03
2023-06-17T17:57:03.498Z,96019.88
2023-06-17T17:59:31.189Z,96005.69
2023-06-17T18:01:58.205Z,96012.97
2023-06-17T18:04:24.698Z,96006.56
2023-06-17T18:06:51.285Z,96011.88
2023-06-17T18:09:17.883Z,96003.16
2023-06-17T18:11:44.834Z,96017.53
2023-06-17T18:14:11.441Z,96013.94
2023-06-17T18:16:38.405Z,96012.88
2023-06-17T18:19:05.699Z,96030.00
2023-06-17T18:21:32.395Z,96026.13
2023-06-17T18:23:58.911Z,96031.22
2023-06-17T18:26:25.742Z,96028.44
2023-06-17T18:28:52.259Z,96031.44
2023-06-17T18:31:18.766Z,96034.88
2023-06-17T18:33:45.825Z,96038.63
2023-06-17T18:36:12.363Z,96015.56
2023-06-17T18:38:38.877Z,96028.56
2023-06-17T18:41:05.502Z,96035.00
2023-06-17T18:43:32.010Z,96031.88
2023-06-17T18:45:58.706Z,96036.19
2023-06-17T18:48:25.507Z,96038.06
2023-06-17T18:50:52.190Z,96045.00
2023-06-17T18:53:18.854Z,96041.31
2023-06-17T18:55:45.382Z,96034.88
2023-06-17T18:58:11.878Z,96034.59
2023-06-17T19:00:39.054Z,96053.75
2023-06-17T19:03:05.960Z,96056.25
2023-06-17T19:05:32.863Z,96059.53
2023-06-17T19:07:59.539Z,96055.50
2023-06-17T19:10:26.102Z,96071.50
2023-06-17T19:12:52.684Z,96058.06
2023-06-17T19:15:19.307Z,96063.09
2023-06-17T19:17:45.845Z,96068.63
2023-06-17T19:20:13.176Z,96071.91
2023-06-17T19:22:39.799Z,96073.38
2023-06-17T19:25:06.663Z,96054.16
2023-06-17T19:27:33.845Z,96076.88
2023-06-17T19:30:02.843Z,96079.72
2023-06-17T19:32:29.996Z,96085.13
2023-06-17T19:34:59.036Z,96068.13
2023-06-17T19:37:27.180Z,96086.84
2023-06-17T19:39:54.129Z,96086.50
2023-06-17T19:42:21.013Z,96078.28
2023-06-17T19:44:56.729Z,96085.56
2023-06-17T19:47:27.659Z,96093.47
2023-06-17T19:49:56.849Z,96094.75
2023-06-17T19:52:24.237Z,96084.59
2023-06-17T19:54:50.725Z,96083.31
2023-06-17T19:57:17.376Z,96100.13
2023-06-17T19:59:43.882Z,96099.47
2023-06-17T20:02:13.499Z,96098.81
2023-06-17T20:04:40.272Z,96095.06
2023-06-17T20:07:06.975Z,96099.97
2023-06-17T20:09:33.466Z,96084.56
2023-06-17T20:12:00.008Z,96091.47
2023-06-17T20:14:26.890Z,96100.16
2023-06-17T20:16:54.212Z,96098.66
2023-06-17T20:19:20.670Z,96099.53
2023-06-17T20:21:47.308Z,96091.91
2023-06-17T20:24:13.968Z,96084.03
2023-06-17T20:26:40.451Z,96103.06
2023-06-17T20:29:06.982Z,96079.00
2023-06-17T20:31:33.467Z,96099.53
2023-06-17T20:33:59.942Z,96098.88
2023-06-17T20:36:27.598Z,96094.72
2023-06-17T20:38:54.197Z,96092.06
2023-06-17T20:41:20.689Z,96097.41
2023-06-17T20:43:47.790Z,96097.09
2023-06-17T20:46:14.343Z,96087.69
2023-06-17T20:48:41.072Z,96083.53
2023-06-17T20:51:09.691Z,96101.06
2023-06-17T20:53:36.166Z,96096.50
2023-06-17T20:56:02.776Z,96105.34
2023-06-17T20:58:29.237Z,96096.22
2023-06-17T21:00:55.927Z,96097.34
2023-06-17T21:03:22.625Z,96095.50
2023-06-17T21:05:49.185Z,96093.22
2023-06-17T21:08:16.184Z,96098.28
2023-06-17T21:10:42.934Z,96107.47
2023-06-17T21:13:09.537Z,96104.44
2023-06-17T21:15:36.286Z,96097.63
2023-06-17T21:18:02.842Z,96102.22
2023-06-17T21:20:29.614Z,96097.34
2023-06-17T21:22:56.422Z,96094.66
2023-06-17T21:25:23.135Z,96083.34
2023-06-17T21:27:49.656Z,96104.59
